Time;durP1;ratioP1;P1;durP2;ratioP2;P2;SDS_P1;SDS_P2;PMS_P1;PMS_P2;Temp;Humidity;BMP_temperature;BMP_pressure;BME280_temperature;BME280_humidity;BME280_pressure;Samples;Min_cycle;Max_cycle;Signal;HPM_P1;HPM_P2
2022/11/29 00:01:06;;;;;;;32.00;24.20;;;13.40;96.00;;;;;;4591173;19;20014;-22
2022/11/29 00:02:38;;;;;;;29.63;23.83;;;13.40;95.90;;;;;;4591626;19;20034;-22
2022/11/29 00:04:10;;;;;;;34.25;25.02;;;13.40;95.90;;;;;;4591682;19;20396;-22
2022/11/29 00:05:42;;;;;;;28.13;23.57;;;13.40;95.90;;;;;;4589931;19;20018;-22
2022/11/29 00:07:13;;;;;;;32.47;24.60;;;13.40;95.90;;;;;;4590183;19;20053;-22
2022/11/29 00:08:44;;;;;;;29.23;23.13;;;13.40;95.90;;;;;;4590830;19;20010;-21
2022/11/29 00:10:15;;;;;;;31.08;24.40;;;13.40;95.90;;;;;;4590067;19;20081;-22
2022/11/29 00:13:36;;;;;;;30.83;23.87;;;13.40;95.90;;;;;;4590173;19;20065;-23
2022/11/29 00:15:07;;;;;;;29.73;23.48;;;13.40;95.80;;;;;;4588939;19;20452;-22
2022/11/29 00:16:41;;;;;;;30.23;23.17;;;13.40;95.80;;;;;;4590192;19;20365;-22
2022/11/29 00:18:14;;;;;;;28.93;23.60;;;13.40;95.80;;;;;;4591071;19;20017;-22
2022/11/29 00:19:46;;;;;;;31.40;24.77;;;13.40;95.70;;;;;;4588182;19;20110;-22
2022/11/29 00:21:17;;;;;;;30.20;24.45;;;13.40;95.70;;;;;;4590977;19;20022;-22
2022/11/29 00:22:49;;;;;;;30.63;25.33;;;13.40;95.70;;;;;;4590848;19;20015;-22
2022/11/29 00:24:22;;;;;;;31.67;25.07;;;13.40;95.70;;;;;;4591228;19;20491;-25
2022/11/29 00:25:54;;;;;;;31.25;24.90;;;13.40;95.80;;;;;;4590232;19;20445;-24
2022/11/29 00:27:25;;;;;;;34.80;25.60;;;13.40;95.70;;;;;;4588262;19;20018;-23
2022/11/29 00:28:56;;;;;;;32.92;25.20;;;13.40;95.70;;;;;;4590424;19;20460;-23
2022/11/29 00:30:28;;;;;;;32.33;25.67;;;13.40;95.70;;;;;;4589525;19;20022;-22
2022/11/29 00:31:59;;;;;;;35.15;25.55;;;13.40;95.70;;;;;;4590389;19;20077;-21
2022/11/29 00:33:30;;;;;;;34.05;25.15;;;13.40;95.70;;;;;;4590784;19;20006;-22
2022/11/29 00:35:02;;;;;;;32.25;24.95;;;13.40;95.60;;;;;;4590373;19;20029;-22
2022/11/29 00:36:33;;;;;;;34.50;28.38;;;13.40;95.60;;;;;;4590575;19;20411;-22
2022/11/29 00:38:04;;;;;;;38.83;29.27;;;13.40;95.60;;;;;;4589862;19;20018;-24
2022/11/29 00:39:37;;;;;;;35.33;26.27;;;13.40;95.50;;;;;;4590190;19;20018;-22
2022/11/29 00:41:10;;;;;;;34.80;26.73;;;13.40;95.50;;;;;;4590552;19;20033;-23
2022/11/29 00:42:42;;;;;;;35.07;27.70;;;13.30;95.50;;;;;;4586911;19;20501;-24
2022/11/29 00:44:13;;;;;;;37.10;28.35;;;13.40;95.50;;;;;;4589758;19;20465;-22
2022/11/29 00:45:45;;;;;;;37.72;29.00;;;13.40;95.50;;;;;;4590349;19;20595;-22
2022/11/29 00:47:16;;;;;;;;;;;13.40;95.30;;;;;;4591244;19;20511;-22
2022/11/29 00:48:49;;;;;;;37.07;27.30;;;13.40;95.40;;;;;;4590500;19;19926;-22
2022/11/29 00:50:21;;;;;;;38.77;29.77;;;13.40;95.40;;;;;;4590006;19;20461;-22
2022/11/29 00:51:52;;;;;;;38.47;27.92;;;13.40;95.30;;;;;;4590220;19;20476;-22
2022/11/29 00:53:25;;;;;;;37.90;28.30;;;13.40;95.20;;;;;;4589234;19;20003;-21
2022/11/29 00:54:56;;;;;;;37.35;28.77;;;13.30;95.20;;;;;;4590681;19;20040;-22
2022/11/29 00:56:27;;;;;;;40.25;30.10;;;13.40;95.20;;;;;;4590145;19;20015;-22
2022/11/29 00:57:59;;;;;;;39.73;29.57;;;13.40;95.20;;;;;;4590226;19;20011;-21
2022/11/29 00:59:30;;;;;;;38.67;29.40;;;13.40;95.20;;;;;;4590168;19;20428;-22
2022/11/29 01:01:03;;;;;;;38.93;30.90;;;13.40;95.20;;;;;;4588938;19;20026;-23
2022/11/29 01:02:35;;;;;;;38.13;29.90;;;13.40;95.20;;;;;;4589864;19;21048;-23
2022/11/29 01:04:08;;;;;;;39.57;29.80;;;13.40;95.20;;;;;;4590018;19;20505;-22
2022/11/29 01:05:41;;;;;;;42.27;31.03;;;13.40;95.20;;;;;;4589878;19;20441;-22
2022/11/29 01:07:14;;;;;;;39.07;30.03;;;13.40;95.10;;;;;;4590249;19;20083;-21
2022/11/29 01:08:46;;;;;;;39.17;30.02;;;13.40;95.10;;;;;;4589994;19;20019;-22
2022/11/29 01:10:19;;;;;;;40.03;30.13;;;13.40;95.00;;;;;;4588950;19;20014;-23
2022/11/29 01:11:50;;;;;;;40.03;30.92;;;13.40;95.00;;;;;;4589608;19;20022;-24
2022/11/29 01:13:21;;;;;;;39.75;29.88;;;13.30;94.90;;;;;;4588795;19;20078;-22
2022/11/29 01:14:54;;;;;;;40.47;30.00;;;13.30;94.90;;;;;;4589557;19;20086;-23
2022/11/29 01:16:26;;;;;;;39.08;29.20;;;13.30;94.90;;;;;;4590018;19;20441;-24
2022/11/29 01:17:57;;;;;;;;;;;13.40;94.90;;;;;;4591030;19;20043;-22
2022/11/29 01:19:28;;;;;;;43.57;32.20;;;13.40;94.90;;;;;;4589721;19;19915;-22
2022/11/29 01:21:04;;;;;;;41.05;30.77;;;13.40;94.90;;;;;;4587169;19;20042;-23
2022/11/29 01:22:36;;;;;;;41.37;30.73;;;13.40;94.90;;;;;;4588840;19;20027;-23
2022/11/29 01:24:08;;;;;;;38.30;29.73;;;13.40;94.90;;;;;;4588329;19;20445;-22
2022/11/29 01:25:41;;;;;;;39.63;29.90;;;13.40;94.90;;;;;;4589613;19;20244;-21
2022/11/29 01:27:12;;;;;;;38.15;29.60;;;13.30;94.80;;;;;;4589786;19;20030;-22
2022/11/29 01:28:44;;;;;;;37.10;28.92;;;13.30;94.80;;;;;;4588649;19;20009;-21
2022/11/29 01:30:16;;;;;;;41.03;29.43;;;13.30;94.80;;;;;;4588077;19;20031;-23
2022/11/29 01:31:47;;;;;;;39.13;29.10;;;13.30;94.80;;;;;;4589228;19;20010;-22
2022/11/29 01:33:20;;;;;;;37.60;29.33;;;13.30;94.80;;;;;;4589724;19;20082;-21
2022/11/29 01:34:51;;;;;;;37.80;29.52;;;13.30;94.70;;;;;;4589489;19;20010;-22
2022/11/29 01:36:23;;;;;;;41.40;30.60;;;13.30;94.70;;;;;;4589865;19;20014;-21
2022/11/29 01:37:56;;;;;;;37.17;28.03;;;13.30;94.60;;;;;;4589158;19;20074;-22
2022/11/29 01:39:27;;;;;;;39.15;30.25;;;13.30;94.60;;;;;;4589381;19;20010;-23
2022/11/29 01:41:05;;;;;;;36.33;27.70;;;13.30;94.60;;;;;;4589283;19;20017;-22
2022/11/29 01:42:37;;;;;;;38.07;29.10;;;13.30;94.60;;;;;;4588022;19;20485;-21
2022/11/29 01:44:11;;;;;;;39.38;28.70;;;13.30;94.60;;;;;;4587952;19;20007;-22
2022/11/29 01:45:42;;;;;;;38.30;28.47;;;13.30;94.60;;;;;;4589057;19;20022;-23
2022/11/29 01:47:15;;;;;;;39.17;29.23;;;13.30;94.50;;;;;;4589151;19;20018;-24
2022/11/29 01:48:46;;;;;;;38.50;29.60;;;13.30;94.50;;;;;;4587999;19;20019;-23
2022/11/29 01:50:18;;;;;;;39.55;28.70;;;13.30;94.50;;;;;;4589219;19;20036;-21
2022/11/29 01:52:05;;;;;;;39.53;30.17;;;13.30;94.40;;;;;;4589011;19;20015;-22
2022/11/29 01:53:37;;;;;;;41.10;29.23;;;13.30;94.50;;;;;;4587915;19;20745;-24
2022/11/29 01:55:10;;;;;;;39.47;29.33;;;13.40;94.50;;;;;;4587310;19;20022;-22
2022/11/29 01:56:42;;;;;;;40.40;28.97;;;13.30;94.40;;;;;;4587724;19;20464;-22
2022/11/29 01:58:13;;;;;;;38.88;29.08;;;13.30;94.40;;;;;;4587771;19;20103;-22
2022/11/29 01:59:47;;;;;;;38.33;27.95;;;13.40;94.50;;;;;;4587972;19;20022;-22
2022/11/29 02:01:19;;;;;;;39.73;29.80;;;13.40;94.50;;;;;;4588865;19;20009;-22
2022/11/29 02:02:56;;;;;;;40.15;30.45;;;13.40;94.50;;;;;;4588858;19;20484;-22
2022/11/29 02:04:31;;;;;;;40.23;29.13;;;13.30;94.50;;;;;;4587875;19;20558;-22
2022/11/29 02:06:04;;;;;;;38.60;28.80;;;13.40;94.50;;;;;;4588104;19;20022;-22
2022/11/29 02:07:36;;;;;;;37.33;28.13;;;13.30;94.50;;;;;;4588525;19;20462;-26
2022/11/29 02:09:18;;;;;;;37.13;28.27;;;13.30;94.40;;;;;;4586407;19;20577;-22
2022/11/29 02:11:04;;;;;;;;;;;13.30;94.40;;;;;;4587748;19;20006;-22
2022/11/29 02:13:07;;;;;;;36.73;26.50;;;13.30;94.40;;;;;;4586954;19;21102;-22
2022/11/29 02:15:21;;;;;;;39.27;28.10;;;13.30;94.40;;;;;;4586447;19;20425;-21
2022/11/29 02:17:15;;;;;;;35.50;26.97;;;13.30;94.40;;;;;;4586635;19;20876;-25
2022/11/29 02:19:02;;;;;;;37.60;28.80;;;13.30;94.40;;;;;;4586660;19;21020;-22
2022/11/29 02:21:08;;;;;;;39.57;28.13;;;13.30;94.40;;;;;;4586422;19;20440;-22
2022/11/29 02:23:17;;;;;;;37.13;28.40;;;13.30;94.40;;;;;;4586038;19;20428;-24
2022/11/29 02:24:56;;;;;;;39.57;28.63;;;13.30;94.30;;;;;;4586222;19;20437;-22
2022/11/29 02:27:01;;;;;;;36.27;28.33;;;13.30;94.40;;;;;;4586947;19;21249;-22
2022/11/29 02:28:56;;;;;;;36.07;27.40;;;13.30;94.30;;;;;;4586271;19;20425;-22
2022/11/29 02:30:59;;;;;;;38.17;27.67;;;13.40;94.30;;;;;;4586313;19;20433;-22
2022/11/29 02:32:40;;;;;;;37.07;27.27;;;13.30;94.30;;;;;;4586110;19;20409;-22
2022/11/29 02:34:15;;;;;;;33.40;25.77;;;13.30;94.20;;;;;;4585923;19;20819;-22
2022/11/29 02:36:24;;;;;;;37.33;27.57;;;13.30;94.20;;;;;;4586306;19;20449;-21
2022/11/29 02:38:48;;;;;;;36.73;27.33;;;13.30;94.10;;;;;;4586200;19;20856;-21
2022/11/29 02:40:21;;;;;;;40.07;28.03;;;13.30;94.10;;;;;;4585752;19;20011;-22
2022/11/29 02:42:09;;;;;;;37.88;27.88;;;13.30;94.00;;;;;;4586011;19;20066;-22
2022/11/29 02:44:14;;;;;;;37.27;27.50;;;13.30;94.10;;;;;;4585280;19;20244;-22
2022/11/29 02:46:06;;;;;;;37.27;27.70;;;13.30;94.10;;;;;;4586015;19;20011;-22
2022/11/29 02:47:37;;;;;;;35.47;26.70;;;13.30;94.00;;;;;;4585922;19;20036;-23
2022/11/29 02:49:15;;;;;;;38.57;29.37;;;13.30;94.00;;;;;;4586050;19;20472;-22
2022/11/29 02:51:12;;;;;;;35.90;28.13;;;13.30;94.00;;;;;;4588258;19;20429;-22
2022/11/29 02:52:59;;;;;;;37.33;28.70;;;13.30;93.90;;;;;;4588790;19;20019;-23
2022/11/29 02:55:11;;;;;;;37.40;28.50;;;13.30;94.00;;;;;;4590540;19;20432;-22
2022/11/29 02:57:18;;;;;;;35.33;27.73;;;13.30;94.00;;;;;;4590599;19;20006;-23
2022/11/29 02:59:06;;;;;;;39.87;28.07;;;13.30;94.00;;;;;;4590539;19;21106;-22
2022/11/29 03:00:42;;;;;;;38.13;28.57;;;13.30;94.00;;;;;;4590474;19;20015;-23
2022/11/29 03:02:28;;;;;;;36.73;28.70;;;13.30;93.90;;;;;;4590365;19;20511;-22
2022/11/29 03:04:25;;;;;;;38.53;29.30;;;13.40;94.00;;;;;;4589003;19;20377;-21
2022/11/29 03:06:06;;;;;;;39.20;29.77;;;13.30;94.10;;;;;;4590425;19;20007;-22
2022/11/29 03:07:50;;;;;;;37.05;28.60;;;13.30;94.00;;;;;;4590346;19;21059;-23
2022/11/29 03:09:51;;;;;;;37.83;28.93;;;13.30;94.00;;;;;;4590364;19;20015;-22
2022/11/29 03:11:35;;;;;;;36.03;27.65;;;13.30;94.00;;;;;;4590562;19;20014;-21
2022/11/29 03:13:18;;;;;;;38.30;27.47;;;13.30;93.90;;;;;;4592012;19;20450;-23
2022/11/29 03:15:20;;;;;;;35.83;28.67;;;13.30;93.90;;;;;;4591196;19;20945;-22
2022/11/29 03:17:04;;;;;;;36.58;27.45;;;13.30;93.90;;;;;;4592449;19;20460;-22
2022/11/29 03:18:44;;;;;;;36.27;28.47;;;13.30;93.90;;;;;;4592220;19;20010;-22
2022/11/29 03:20:25;;;;;;;36.83;28.47;;;13.30;93.90;;;;;;4592135;19;20512;-22
2022/11/29 03:22:27;;;;;;;34.63;28.13;;;13.30;93.90;;;;;;4592346;19;21032;-22
2022/11/29 03:24:00;;;;;;;37.87;28.33;;;13.30;93.90;;;;;;4588437;19;20074;-22
2022/11/29 03:25:43;;;;;;;34.03;26.60;;;13.30;93.90;;;;;;4590015;19;20046;-22
2022/11/29 03:27:28;;;;;;;36.50;27.67;;;13.30;93.90;;;;;;4590374;19;20413;-22
2022/11/29 03:29:29;;;;;;;37.47;28.60;;;13.30;93.90;;;;;;4590109;19;20549;-22
2022/11/29 03:31:06;;;;;;;34.47;26.57;;;13.30;93.90;;;;;;4589493;19;20969;-22
2022/11/29 03:33:13;;;;;;;36.00;27.53;;;13.30;93.90;;;;;;4589702;19;20025;-21
2022/11/29 03:35:11;;;;;;;34.50;26.50;;;13.30;93.90;;;;;;4589372;19;20041;-22
2022/11/29 03:37:09;;;;;;;36.73;27.53;;;13.30;93.90;;;;;;4589479;19;21065;-22
2022/11/29 03:38:42;;;;;;;33.53;26.70;;;13.30;93.90;;;;;;4589575;19;20441;-21
2022/11/29 03:40:20;;;;;;;34.53;27.10;;;13.30;93.90;;;;;;4589682;19;20011;-22
2022/11/29 03:41:56;;;;;;;35.83;26.80;;;13.30;93.90;;;;;;4589441;19;21097;-22
2022/11/29 03:43:40;;;;;;;35.43;27.07;;;13.30;93.80;;;;;;4588720;19;20545;-22
2022/11/29 03:45:33;;;;;;;38.07;27.10;;;13.30;93.80;;;;;;4589229;19;20424;-22
2022/11/29 03:47:17;;;;;;;34.47;27.20;;;13.30;93.80;;;;;;4589130;19;20021;-22
2022/11/29 03:48:55;;;;;;;32.87;26.03;;;13.30;93.80;;;;;;4589205;19;20452;-22
2022/11/29 03:50:35;;;;;;;33.83;25.57;;;13.30;93.80;;;;;;4589413;19;20484;-23
2022/11/29 03:52:44;;;;;;;32.58;25.77;;;13.30;93.80;;;;;;4589455;19;20830;-22
2022/11/29 03:54:20;;;;;;;35.37;26.37;;;13.30;93.80;;;;;;4589177;19;20014;-22
2022/11/29 03:55:53;;;;;;;32.87;25.33;;;13.30;93.90;;;;;;4589207;19;20521;-22
2022/11/29 03:57:38;;;;;;;33.83;25.80;;;13.30;93.80;;;;;;4588888;19;20453;-22
2022/11/29 03:59:12;;;;;;;31.67;24.70;;;13.30;93.80;;;;;;4588876;19;20539;-22
2022/11/29 04:00:47;;;;;;;32.87;25.47;;;13.30;93.80;;;;;;4589034;19;20531;-22
2022/11/29 04:02:53;;;;;;;29.43;22.93;;;13.30;93.70;;;;;;4589076;19;21159;-23
2022/11/29 04:04:36;;;;;;;30.93;24.43;;;13.30;93.70;;;;;;4589142;19;20771;-22
2022/11/29 04:06:20;;;;;;;31.23;24.10;;;13.30;93.70;;;;;;4588975;19;20006;-22
2022/11/29 04:08:38;;;;;;;30.03;23.83;;;13.30;93.80;;;;;;4589128;19;20444;-22
2022/11/29 04:10:33;;;;;;;31.10;23.90;;;13.30;93.70;;;;;;4588832;19;20461;-22
2022/11/29 04:12:32;;;;;;;33.63;24.23;;;13.30;93.70;;;;;;4588359;19;20436;-22
2022/11/29 04:14:09;;;;;;;32.53;24.73;;;13.30;93.70;;;;;;4588530;19;20448;-23
2022/11/29 04:16:03;;;;;;;30.83;25.03;;;13.30;93.70;;;;;;4588762;19;20921;-22
2022/11/29 04:18:13;;;;;;;33.23;23.73;;;13.30;93.70;;;;;;4588546;19;20393;-22
2022/11/29 04:20:16;;;;;;;30.63;23.23;;;13.30;93.70;;;;;;4588384;19;20990;-22
2022/11/29 04:22:24;;;;;;;28.97;22.87;;;13.30;93.70;;;;;;4588594;19;20024;-21
2022/11/29 04:24:04;;;;;;;27.57;20.97;;;13.30;93.60;;;;;;4587407;19;20352;-21
2022/11/29 04:25:51;;;;;;;28.03;21.43;;;13.30;93.70;;;;;;4588536;19;20458;-22
2022/11/29 04:27:45;;;;;;;28.70;21.97;;;13.30;93.60;;;;;;4588879;19;20421;-23
2022/11/29 04:29:23;;;;;;;31.30;22.93;;;13.30;93.60;;;;;;4588019;19;20516;-22
2022/11/29 04:30:57;;;;;;;29.93;22.97;;;13.30;93.60;;;;;;4587917;19;20445;-22
2022/11/29 04:32:47;;;;;;;30.37;22.40;;;13.30;93.60;;;;;;4587991;19;20445;-24
2022/11/29 04:34:22;;;;;;;27.40;21.53;;;13.30;93.60;;;;;;4588303;19;20432;-22
2022/11/29 04:36:33;;;;;;;26.93;21.87;;;13.30;93.60;;;;;;4589900;19;20449;-24
2022/11/29 04:38:14;;;;;;;29.50;22.17;;;13.30;93.60;;;;;;4587801;19;20433;-24
2022/11/29 04:39:45;;;;;;;29.47;21.30;;;13.30;93.60;;;;;;4588608;19;20409;-22
2022/11/29 04:41:34;;;;;;;29.85;21.70;;;13.30;93.60;;;;;;4587448;19;20453;-22
2022/11/29 04:43:27;;;;;;;27.97;21.97;;;13.40;93.60;;;;;;4587793;19;20049;-22
2022/11/29 04:45:36;;;;;;;31.67;22.27;;;13.40;93.50;;;;;;4589964;19;20015;-22
2022/11/29 04:47:27;;;;;;;29.33;22.63;;;13.50;93.40;;;;;;4588132;19;20449;-22
2022/11/29 04:49:04;;;;;;;27.50;21.03;;;13.60;93.30;;;;;;4588158;19;20085;-23
2022/11/29 04:51:05;;;;;;;27.97;21.30;;;13.60;93.20;;;;;;4587964;19;21072;-22
2022/11/29 04:53:05;;;;;;;29.08;21.52;;;13.70;93.10;;;;;;4587950;19;20540;-22
2022/11/29 04:54:45;;;;;;;29.83;21.93;;;13.70;93.00;;;;;;4588396;19;20014;-22
2022/11/29 04:56:35;;;;;;;31.37;22.63;;;13.70;93.00;;;;;;4588050;19;20501;-22
2022/11/29 04:58:42;;;;;;;29.58;22.10;;;13.70;93.00;;;;;;4590112;19;20493;-22
2022/11/29 05:00:21;;;;;;;26.70;20.97;;;13.70;93.00;;;;;;4588861;19;20018;-22
2022/11/29 05:02:14;;;;;;;26.83;21.37;;;13.80;93.00;;;;;;4588946;19;20478;-22
2022/11/29 05:03:50;;;;;;;;;;;13.80;93.00;;;;;;4588750;19;20457;-22
2022/11/29 05:05:36;;;;;;;30.87;22.57;;;13.80;93.00;;;;;;4589206;19;19911;-22
2022/11/29 05:07:29;;;;;;;27.77;21.37;;;13.80;93.00;;;;;;4589143;19;20457;-21
2022/11/29 05:09:49;;;;;;;26.40;20.00;;;13.80;93.00;;;;;;4587821;19;20518;-22
2022/11/29 05:11:41;;;;;;;28.43;20.93;;;13.80;93.00;;;;;;4588294;19;20010;-22
2022/11/29 05:13:15;;;;;;;;;;;13.80;92.90;;;;;;4585434;19;20074;-23
2022/11/29 05:14:58;;;;;;;27.43;20.83;;;13.80;92.90;;;;;;4585969;19;19923;-23
2022/11/29 05:16:59;;;;;;;26.40;20.60;;;13.80;93.00;;;;;;4585944;19;20514;-21
2022/11/29 05:19:01;;;;;;;25.20;18.30;;;13.80;93.00;;;;;;4584705;19;20491;-22
2022/11/29 05:20:35;;;;;;;27.08;20.30;;;13.90;93.00;;;;;;4586468;19;20022;-22
2022/11/29 05:22:22;;;;;;;28.17;20.97;;;13.80;93.20;;;;;;4584580;19;20358;-22
2022/11/29 05:23:55;;;;;;;27.53;20.13;;;13.80;93.00;;;;;;4587681;19;20015;-23
2022/11/29 05:25:30;;;;;;;29.40;21.27;;;13.70;93.10;;;;;;4587934;19;20010;-22
2022/11/29 05:27:20;;;;;;;28.20;21.53;;;13.60;93.20;;;;;;4585205;19;20018;-23
2022/11/29 05:29:12;;;;;;;27.10;21.03;;;13.60;93.20;;;;;;4588883;19;20019;-22
2022/11/29 05:31:01;;;;;;;27.88;20.67;;;13.60;93.20;;;;;;4588390;19;20010;-22
2022/11/29 05:33:04;;;;;;;25.63;20.50;;;13.60;93.30;;;;;;4589300;19;20015;-23
2022/11/29 05:34:47;;;;;;;26.63;20.38;;;13.60;93.30;;;;;;4590009;19;20017;-22
2022/11/29 05:36:38;;;;;;;29.20;20.90;;;13.60;93.30;;;;;;4587153;19;20036;-22
2022/11/29 05:38:10;;;;;;;28.58;20.70;;;13.60;93.30;;;;;;4589363;19;20477;-25
2022/11/29 05:39:56;;;;;;;29.63;21.38;;;13.60;93.40;;;;;;4589386;19;20476;-22
2022/11/29 05:41:33;;;;;;;30.03;21.83;;;13.50;93.30;;;;;;4588938;19;20014;-22
2022/11/29 05:43:13;;;;;;;28.60;20.80;;;13.50;93.30;;;;;;4588827;19;20019;-22
2022/11/29 05:45:16;;;;;;;25.53;20.33;;;13.50;93.30;;;;;;4590151;19;20011;-24
2022/11/29 05:46:55;;;;;;;26.25;20.77;;;13.50;93.40;;;;;;4588204;19;20029;-22
2022/11/29 05:49:04;;;;;;;28.03;20.63;;;13.50;93.40;;;;;;4588479;19;20022;-23
2022/11/29 05:50:52;;;;;;;27.47;20.03;;;13.50;93.40;;;;;;4586590;19;20010;-22
2022/11/29 05:52:32;;;;;;;33.87;23.93;;;13.50;93.40;;;;;;4585265;19;20436;-23
2022/11/29 05:54:14;;;;;;;31.93;24.07;;;13.50;93.50;;;;;;4585987;19;20456;-22
2022/11/29 05:56:08;;;;;;;33.53;22.80;;;13.50;93.50;;;;;;4585996;19;20431;-21
2022/11/29 05:57:57;;;;;;;33.73;24.93;;;13.50;93.50;;;;;;4586032;19;20481;-22
2022/11/29 05:59:29;;;;;;;34.47;23.60;;;13.50;93.50;;;;;;4586080;19;20421;-21
2022/11/29 06:01:30;;;;;;;34.97;25.13;;;13.50;93.50;;;;;;4589019;19;20011;-22
2022/11/29 06:03:09;;;;;;;35.93;25.87;;;13.50;93.50;;;;;;4585376;19;20507;-23
2022/11/29 06:04:48;;;;;;;38.10;26.13;;;13.50;93.60;;;;;;4585615;19;20373;-22
2022/11/29 06:06:48;;;;;;;35.43;24.57;;;13.50;93.60;;;;;;4585292;19;20535;-23
2022/11/29 06:08:48;;;;;;;35.67;24.60;;;13.50;93.60;;;;;;4585555;19;20015;-22
2022/11/29 06:10:25;;;;;;;31.40;23.37;;;13.40;93.50;;;;;;4586216;19;20453;-22
2022/11/29 06:12:01;;;;;;;39.00;26.60;;;13.40;93.60;;;;;;4586479;19;20074;-22
2022/11/29 06:13:53;;;;;;;40.23;26.47;;;13.40;93.50;;;;;;4585981;19;20044;-22
2022/11/29 06:16:00;;;;;;;36.53;24.37;;;13.40;93.50;;;;;;4586566;19;20010;-23
2022/11/29 06:17:40;;;;;;;28.13;22.03;;;13.40;93.50;;;;;;4586772;19;20015;-23
2022/11/29 06:19:55;;;;;;;29.33;22.37;;;13.40;93.50;;;;;;4586788;19;20452;-22
2022/11/29 06:21:59;;;;;;;31.47;23.23;;;13.40;93.50;;;;;;4609014;19;20780;-25
2022/11/29 06:23:30;;;;;;;28.23;23.20;;;13.40;93.60;;;;;;4610759;19;20531;-23
2022/11/29 06:25:20;;;;;;;32.03;23.13;;;13.40;93.60;;;;;;4610605;19;20495;-23
2022/11/29 06:27:01;;;;;;;31.80;22.50;;;13.40;93.70;;;;;;4610482;19;20018;-22
2022/11/29 06:28:54;;;;;;;28.88;21.15;;;13.40;93.60;;;;;;4610460;19;20467;-22
2022/11/29 06:30:28;;;;;;;30.77;23.17;;;13.40;93.60;;;;;;4611174;19;20040;-22
2022/11/29 06:32:31;;;;;;;30.07;23.60;;;13.40;93.60;;;;;;4609340;19;20502;-22
2022/11/29 06:34:08;;;;;;;29.37;22.13;;;13.40;93.60;;;;;;4611183;19;20560;-22
2022/11/29 06:35:51;;;;;;;27.63;21.70;;;13.30;93.60;;;;;;4611126;19;20480;-22
2022/11/29 06:37:26;;;;;;;28.00;20.87;;;13.30;93.60;;;;;;4610902;19;20475;-23
2022/11/29 06:38:58;;;;;;;26.23;20.60;;;13.30;93.60;;;;;;4609740;19;20436;-23
2022/11/29 06:40:30;;;;;;;27.38;22.23;;;13.30;93.70;;;;;;4609850;19;20526;-23
2022/11/29 06:42:02;;;;;;;28.83;22.40;;;13.40;93.70;;;;;;4609408;19;20035;-22
2022/11/29 06:43:33;;;;;;;31.93;22.90;;;13.40;93.60;;;;;;4613541;19;20027;-22
2022/11/29 06:45:06;;;;;;;28.70;22.33;;;13.40;93.60;;;;;;4612084;19;20022;-23
2022/11/29 06:46:47;;;;;;;28.33;21.23;;;13.40;93.60;;;;;;4611753;19;20010;-22
2022/11/29 06:48:26;;;;;;;30.05;22.58;;;13.40;93.50;;;;;;4609827;19;20401;-23
2022/11/29 06:50:45;;;;;;;27.87;20.47;;;13.50;93.50;;;;;;4611544;19;20479;-23
2022/11/29 06:52:43;;;;;;;28.87;21.73;;;13.70;93.60;;;;;;4606420;19;20059;-28
2022/11/29 06:54:18;;;;;;;28.83;21.60;;;13.70;93.40;;;;;;4609483;19;21072;-24
2022/11/29 06:56:14;;;;;;;31.00;22.67;;;13.60;93.40;;;;;;4609716;19;20014;-23
2022/11/29 06:57:52;;;;;;;30.77;20.73;;;13.60;93.50;;;;;;4610041;19;20583;-22
2022/11/29 06:59:41;;;;;;;28.57;22.30;;;13.60;93.50;;;;;;4610352;19;20000;-22
2022/11/29 07:01:25;;;;;;;26.13;20.20;;;13.60;93.50;;;;;;4607829;19;20093;-23
2022/11/29 07:03:05;;;;;;;27.23;21.03;;;13.50;93.40;;;;;;4609312;19;20013;-23
2022/11/29 07:04:44;;;;;;;28.23;21.83;;;13.50;93.40;;;;;;4609293;19;20014;-23
2022/11/29 07:06:21;;;;;;;27.87;21.27;;;13.50;93.40;;;;;;4609888;19;20369;-22
2022/11/29 07:07:54;;;;;;;30.97;22.00;;;13.50;93.40;;;;;;4610245;19;20548;-23
2022/11/29 07:09:31;;;;;;;29.37;21.80;;;13.50;93.40;;;;;;4609018;19;20018;-22
2022/11/29 07:11:03;;;;;;;28.17;21.07;;;13.40;93.40;;;;;;4609401;19;20452;-23
2022/11/29 07:12:35;;;;;;;26.23;20.63;;;13.40;93.40;;;;;;4609179;19;20536;-22
2022/11/29 07:14:08;;;;;;;28.63;20.67;;;13.40;93.60;;;;;;4609777;19;20444;-23
2022/11/29 07:15:52;;;;;;;27.83;21.87;;;13.40;93.50;;;;;;4609142;19;20443;-22
2022/11/29 07:17:42;;;;;;;29.88;22.00;;;13.40;93.50;;;;;;4609064;19;20449;-22
2022/11/29 07:19:16;;;;;;;27.00;21.00;;;13.30;93.60;;;;;;4609427;19;20484;-23
2022/11/29 07:21:09;;;;;;;28.43;21.53;;;13.30;93.50;;;;;;4607349;19;20479;-22
2022/11/29 07:23:05;;;;;;;28.50;20.97;;;13.40;93.60;;;;;;4609537;19;20014;-22
2022/11/29 07:24:40;;;;;;;28.33;21.57;;;13.40;93.50;;;;;;4609096;19;20478;-23
2022/11/29 07:26:17;;;;;;;31.47;22.67;;;13.40;93.50;;;;;;4608674;19;20459;-25
2022/11/29 07:28:00;;;;;;;30.50;22.47;;;13.40;93.60;;;;;;4608671;19;20010;-25
2022/11/29 07:29:40;;;;;;;30.17;21.63;;;13.40;93.60;;;;;;4610089;19;20468;-23
2022/11/29 07:31:33;;;;;;;29.97;22.67;;;13.50;93.60;;;;;;4611498;19;20483;-22
2022/11/29 07:33:26;;;;;;;29.63;21.10;;;13.50;93.50;;;;;;4592685;19;20026;-23
2022/11/29 07:35:16;;;;;;;28.83;21.27;;;13.50;93.60;;;;;;4592936;19;19999;-22
2022/11/29 07:37:02;;;;;;;28.35;22.60;;;13.60;93.50;;;;;;4592302;19;20400;-22
2022/11/29 07:38:56;;;;;;;26.40;20.47;;;13.60;93.40;;;;;;4593233;19;20006;-22
2022/11/29 07:40:38;;;;;;;27.87;21.80;;;13.70;93.40;;;;;;4591712;19;20480;-22
2022/11/29 07:42:25;;;;;;;29.20;21.97;;;13.70;93.40;;;;;;4592176;19;20512;-24
2022/11/29 07:44:08;;;;;;;27.33;20.17;;;13.70;93.40;;;;;;4591871;19;20018;-23
2022/11/29 07:45:44;;;;;;;28.97;22.10;;;13.70;93.40;;;;;;4591507;19;20357;-23
2022/11/29 07:47:15;;;;;;;27.63;20.80;;;13.70;93.50;;;;;;4592744;19;20007;-23
2022/11/29 07:48:46;;;;;;;27.88;21.15;;;13.70;93.60;;;;;;4592472;19;20019;-27
2022/11/29 07:50:17;;;;;;;29.30;21.75;;;13.70;93.60;;;;;;4593237;19;20006;-24
2022/11/29 07:51:48;;;;;;;26.92;21.00;;;13.70;93.60;;;;;;4592205;19;20006;-23
2022/11/29 07:53:22;;;;;;;27.90;22.10;;;13.70;93.60;;;;;;4591001;19;20015;-22
2022/11/29 07:54:53;;;;;;;31.27;24.13;;;13.70;93.60;;;;;;4590857;19;20019;-22
2022/11/29 07:56:25;;;;;;;27.88;20.75;;;13.60;93.60;;;;;;4592264;19;20031;-22
2022/11/29 07:57:56;;;;;;;28.93;22.03;;;13.60;93.50;;;;;;4592618;19;20504;-22
2022/11/29 07:59:28;;;;;;;29.95;21.50;;;13.60;93.50;;;;;;4592090;19;20070;-22
2022/11/29 08:00:59;;;;;;;;;;;13.60;93.50;;;;;;4592451;19;20075;-23
2022/11/29 08:02:33;;;;;;;25.63;20.63;;;13.60;93.50;;;;;;4592806;19;19915;-23
2022/11/29 08:04:07;;;;;;;26.17;21.03;;;13.60;93.60;;;;;;4593074;19;20827;-22
2022/11/29 08:05:38;;;;;;;27.83;20.95;;;13.50;93.50;;;;;;4591345;19;20457;-22
2022/11/29 08:07:09;;;;;;;27.63;21.42;;;13.60;93.60;;;;;;4592119;19;20014;-22
2022/11/29 08:08:40;;;;;;;29.75;22.05;;;13.60;93.60;;;;;;4592871;19;20029;-23
2022/11/29 08:10:13;;;;;;;28.83;22.02;;;13.60;93.60;;;;;;4593166;19;20011;-23
2022/11/29 08:11:44;;;;;;;30.50;22.40;;;13.50;93.50;;;;;;4592294;19;20007;-22
2022/11/29 08:13:21;;;;;;;28.55;21.67;;;13.50;93.50;;;;;;4592372;19;20449;-22
2022/11/29 08:14:52;;;;;;;29.10;22.53;;;13.60;93.60;;;;;;4592225;19;20006;-22
2022/11/29 08:16:23;;;;;;;32.47;24.42;;;13.50;93.50;;;;;;4591669;19;20006;-24
2022/11/29 08:17:54;;;;;;;35.10;26.80;;;13.50;93.50;;;;;;4590880;19;20046;-22
2022/11/29 08:19:25;;;;;;;34.85;27.58;;;13.50;93.60;;;;;;4591680;19;20427;-22
2022/11/29 08:20:56;;;;;;;31.05;24.60;;;13.50;93.60;;;;;;4590749;19;20018;-22
2022/11/29 08:22:27;;;;;;;31.20;24.05;;;13.50;93.60;;;;;;4591703;19;20014;-23
2022/11/29 08:23:58;;;;;;;33.13;24.30;;;13.50;93.70;;;;;;4591104;19;20030;-22
2022/11/29 08:25:29;;;;;;;29.77;25.13;;;13.50;93.70;;;;;;4590925;19;20015;-22
2022/11/29 08:27:01;;;;;;;29.95;24.75;;;13.50;93.70;;;;;;4592216;19;20019;-24
2022/11/29 08:28:33;;;;;;;30.75;23.25;;;13.50;93.70;;;;;;4591925;19;20006;-22
2022/11/29 08:30:04;;;;;;;26.10;21.67;;;13.40;93.60;;;;;;4589668;19;20342;-23
2022/11/29 08:31:36;;;;;;;27.47;22.00;;;13.50;93.70;;;;;;4591441;19;20424;-23
2022/11/29 08:33:07;;;;;;;28.60;22.35;;;13.40;93.60;;;;;;4592689;19;20479;-22
2022/11/29 08:34:38;;;;;;;28.25;21.50;;;13.40;93.60;;;;;;4591896;19;20019;-23
2022/11/29 08:36:11;;;;;;;25.35;21.38;;;13.40;93.60;;;;;;4592304;19;20066;-22
2022/11/29 08:37:42;;;;;;;28.20;21.33;;;13.40;93.60;;;;;;4591978;19;20349;-24
2022/11/29 08:39:13;;;;;;;27.40;21.40;;;13.40;93.50;;;;;;4592106;19;20011;-22